sensor_id;sensor_type;location;lat;lon;timestamp;P1;durP1;ratioP1;P2;durP2;ratioP2
6751;SDS011;3413;47.680;9.166;2023-04-03T00:00:03;4.30;;;2.17;;
6751;SDS011;3413;47.680;9.166;2023-04-03T00:05:06;3.90;;;2.27;;
6751;SDS011;3413;47.680;9.166;2023-04-03T00:10:08;4.13;;;2.20;;
6751;SDS011;3413;47.680;9.166;2023-04-03T00:15:11;3.67;;;2.03;;
6751;SDS011;3413;47.680;9.166;2023-04-03T00:20:13;4.33;;;1.93;;
6751;SDS011;3413;47.680;9.166;2023-04-03T00:25:16;5.53;;;2.70;;
6751;SDS011;3413;47.680;9.166;2023-04-03T00:30:18;3.00;;;2.13;;
6751;SDS011;3413;47.680;9.166;2023-04-03T00:35:22;8.13;;;2.50;;
6751;SDS011;3413;47.680;9.166;2023-04-03T00:40:26;4.60;;;2.43;;
6751;SDS011;3413;47.680;9.166;2023-04-03T00:45:30;3.97;;;2.63;;
6751;SDS011;3413;47.680;9.166;2023-04-03T00:50:35;4.83;;;2.30;;
6751;SDS011;3413;47.680;9.166;2023-04-03T00:55:39;5.83;;;2.27;;
6751;SDS011;3413;47.680;9.166;2023-04-03T01:00:46;4.73;;;2.57;;
6751;SDS011;3413;47.680;9.166;2023-04-03T01:05:52;3.80;;;2.27;;
6751;SDS011;3413;47.680;9.166;2023-04-03T01:10:55;6.23;;;2.60;;
6751;SDS011;3413;47.680;9.166;2023-04-03T01:16:02;3.23;;;2.37;;
6751;SDS011;3413;47.680;9.166;2023-04-03T01:26:38;5.57;;;2.70;;
6751;SDS011;3413;47.680;9.166;2023-04-03T01:36:52;4.05;;;2.40;;
6751;SDS011;3413;47.680;9.166;2023-04-03T01:41:55;2.83;;;2.10;;
6751;SDS011;3413;47.680;9.166;2023-04-03T01:47:05;3.00;;;2.10;;
6751;SDS011;3413;47.680;9.166;2023-04-03T01:52:09;4.00;;;2.50;;
6751;SDS011;3413;47.680;9.166;2023-04-03T01:57:11;3.33;;;2.03;;
6751;SDS011;3413;47.680;9.166;2023-04-03T02:02:15;3.90;;;2.37;;
6751;SDS011;3413;47.680;9.166;2023-04-03T02:07:17;3.57;;;2.00;;
6751;SDS011;3413;47.680;9.166;2023-04-03T02:12:19;3.13;;;1.90;;
6751;SDS011;3413;47.680;9.166;2023-04-03T02:17:21;5.60;;;3.10;;
6751;SDS011;3413;47.680;9.166;2023-04-03T02:22:23;4.93;;;2.40;;
6751;SDS011;3413;47.680;9.166;2023-04-03T02:27:25;3.77;;;2.03;;
6751;SDS011;3413;47.680;9.166;2023-04-03T02:32:27;4.33;;;2.60;;
6751;SDS011;3413;47.680;9.166;2023-04-03T02:37:30;5.67;;;2.63;;
6751;SDS011;3413;47.680;9.166;2023-04-03T02:42:32;7.83;;;3.30;;
6751;SDS011;3413;47.680;9.166;2023-04-03T02:47:34;4.10;;;2.77;;
6751;SDS011;3413;47.680;9.166;2023-04-03T02:52:36;4.73;;;2.70;;
6751;SDS011;3413;47.680;9.166;2023-04-03T02:57:38;9.53;;;3.10;;
6751;SDS011;3413;47.680;9.166;2023-04-03T03:02:40;5.60;;;2.97;;
6751;SDS011;3413;47.680;9.166;2023-04-03T03:07:43;5.00;;;2.77;;
6751;SDS011;3413;47.680;9.166;2023-04-03T03:12:44;5.33;;;2.60;;
6751;SDS011;3413;47.680;9.166;2023-04-03T03:17:47;5.43;;;2.67;;
6751;SDS011;3413;47.680;9.166;2023-04-03T03:22:48;4.47;;;2.67;;
6751;SDS011;3413;47.680;9.166;2023-04-03T03:27:50;4.53;;;2.77;;
6751;SDS011;3413;47.680;9.166;2023-04-03T03:32:52;3.13;;;1.93;;
6751;SDS011;3413;47.680;9.166;2023-04-03T03:37:57;3.20;;;1.97;;
6751;SDS011;3413;47.680;9.166;2023-04-03T03:43:02;4.37;;;2.47;;
6751;SDS011;3413;47.680;9.166;2023-04-03T03:48:04;6.00;;;3.33;;
6751;SDS011;3413;47.680;9.166;2023-04-03T03:53:06;3.57;;;2.27;;
6751;SDS011;3413;47.680;9.166;2023-04-03T03:58:08;3.63;;;2.23;;
6751;SDS011;3413;47.680;9.166;2023-04-03T04:03:11;3.37;;;1.70;;
6751;SDS011;3413;47.680;9.166;2023-04-03T04:08:15;2.20;;;1.70;;
6751;SDS011;3413;47.680;9.166;2023-04-03T04:13:18;3.60;;;2.13;;
6751;SDS011;3413;47.680;9.166;2023-04-03T04:18:20;5.50;;;1.93;;
6751;SDS011;3413;47.680;9.166;2023-04-03T04:23:24;4.67;;;2.07;;
6751;SDS011;3413;47.680;9.166;2023-04-03T04:28:26;3.73;;;2.00;;
6751;SDS011;3413;47.680;9.166;2023-04-03T04:33:30;3.70;;;1.97;;
6751;SDS011;3413;47.680;9.166;2023-04-03T04:38:34;3.90;;;1.80;;
6751;SDS011;3413;47.680;9.166;2023-04-03T04:43:37;2.83;;;2.00;;
6751;SDS011;3413;47.680;9.166;2023-04-03T04:48:39;2.40;;;1.60;;
6751;SDS011;3413;47.680;9.166;2023-04-03T04:53:42;3.37;;;1.97;;
6751;SDS011;3413;47.680;9.166;2023-04-03T04:58:47;4.90;;;2.03;;
6751;SDS011;3413;47.680;9.166;2023-04-03T05:03:54;3.73;;;2.07;;
6751;SDS011;3413;47.680;9.166;2023-04-03T05:08:58;3.10;;;1.60;;
6751;SDS011;3413;47.680;9.166;2023-04-03T05:14:01;3.47;;;1.70;;
6751;SDS011;3413;47.680;9.166;2023-04-03T05:19:06;3.30;;;1.90;;
6751;SDS011;3413;47.680;9.166;2023-04-03T05:24:09;5.67;;;2.20;;
6751;SDS011;3413;47.680;9.166;2023-04-03T05:29:14;3.90;;;1.77;;
6751;SDS011;3413;47.680;9.166;2023-04-03T05:34:16;4.20;;;1.80;;
6751;SDS011;3413;47.680;9.166;2023-04-03T05:39:21;3.60;;;1.90;;
6751;SDS011;3413;47.680;9.166;2023-04-03T05:44:24;2.90;;;1.50;;
6751;SDS011;3413;47.680;9.166;2023-04-03T05:49:28;2.60;;;1.70;;
6751;SDS011;3413;47.680;9.166;2023-04-03T05:54:30;4.33;;;1.67;;
6751;SDS011;3413;47.680;9.166;2023-04-03T05:59:42;4.83;;;1.53;;
6751;SDS011;3413;47.680;9.166;2023-04-03T06:04:45;3.60;;;1.93;;
6751;SDS011;3413;47.680;9.166;2023-04-03T06:09:50;2.47;;;1.73;;
6751;SDS011;3413;47.680;9.166;2023-04-03T06:14:52;2.50;;;1.67;;
6751;SDS011;3413;47.680;9.166;2023-04-03T06:19:54;3.93;;;2.10;;
6751;SDS011;3413;47.680;9.166;2023-04-03T06:24:57;2.83;;;1.80;;
6751;SDS011;3413;47.680;9.166;2023-04-03T06:29:59;6.03;;;2.07;;
6751;SDS011;3413;47.680;9.166;2023-04-03T06:35:01;3.80;;;1.90;;
6751;SDS011;3413;47.680;9.166;2023-04-03T06:40:03;8.30;;;2.10;;
6751;SDS011;3413;47.680;9.166;2023-04-03T06:45:06;5.53;;;1.83;;
6751;SDS011;3413;47.680;9.166;2023-04-03T06:50:09;5.57;;;1.90;;
6751;SDS011;3413;47.680;9.166;2023-04-03T06:55:12;3.93;;;2.17;;
6751;SDS011;3413;47.680;9.166;2023-04-03T07:00:15;5.47;;;3.00;;
6751;SDS011;3413;47.680;9.166;2023-04-03T07:05:17;2.63;;;1.80;;
6751;SDS011;3413;47.680;9.166;2023-04-03T07:10:20;3.30;;;1.90;;
6751;SDS011;3413;47.680;9.166;2023-04-03T07:15:22;3.10;;;2.00;;
6751;SDS011;3413;47.680;9.166;2023-04-03T07:20:24;3.17;;;1.50;;
6751;SDS011;3413;47.680;9.166;2023-04-03T07:25:25;4.10;;;1.83;;
6751;SDS011;3413;47.680;9.166;2023-04-03T07:30:27;3.07;;;2.10;;
6751;SDS011;3413;47.680;9.166;2023-04-03T07:35:29;5.13;;;1.77;;
6751;SDS011;3413;47.680;9.166;2023-04-03T07:40:32;2.90;;;1.70;;
6751;SDS011;3413;47.680;9.166;2023-04-03T07:45:34;3.93;;;1.70;;
6751;SDS011;3413;47.680;9.166;2023-04-03T07:50:39;4.87;;;1.90;;
6751;SDS011;3413;47.680;9.166;2023-04-03T07:55:42;5.13;;;1.90;;
6751;SDS011;3413;47.680;9.166;2023-04-03T08:00:44;4.30;;;2.40;;
6751;SDS011;3413;47.680;9.166;2023-04-03T08:05:48;3.00;;;1.90;;
6751;SDS011;3413;47.680;9.166;2023-04-03T08:10:51;4.33;;;1.93;;
6751;SDS011;3413;47.680;9.166;2023-04-03T08:15:54;4.50;;;2.17;;
6751;SDS011;3413;47.680;9.166;2023-04-03T08:20:58;3.63;;;2.00;;
6751;SDS011;3413;47.680;9.166;2023-04-03T08:26:05;11.30;;;2.10;;
6751;SDS011;3413;47.680;9.166;2023-04-03T08:31:16;4.77;;;2.60;;
6751;SDS011;3413;47.680;9.166;2023-04-03T08:36:21;3.47;;;2.17;;
6751;SDS011;3413;47.680;9.166;2023-04-03T08:41:37;3.17;;;2.10;;
6751;SDS011;3413;47.680;9.166;2023-04-03T08:51:55;9.27;;;2.03;;
6751;SDS011;3413;47.680;9.166;2023-04-03T08:56:58;2.80;;;1.93;;
6751;SDS011;3413;47.680;9.166;2023-04-03T09:02:04;3.90;;;2.67;;
6751;SDS011;3413;47.680;9.166;2023-04-03T09:07:31;3.80;;;2.00;;
6751;SDS011;3413;47.680;9.166;2023-04-03T09:12:49;8.80;;;3.27;;
6751;SDS011;3413;47.680;9.166;2023-04-03T09:23:22;4.53;;;2.13;;
6751;SDS011;3413;47.680;9.166;2023-04-03T09:28:34;2.93;;;1.60;;
6751;SDS011;3413;47.680;9.166;2023-04-03T09:33:52;4.30;;;2.73;;
6751;SDS011;3413;47.680;9.166;2023-04-03T09:39:04;3.07;;;1.77;;
6751;SDS011;3413;47.680;9.166;2023-04-03T09:44:24;5.83;;;2.57;;
6751;SDS011;3413;47.680;9.166;2023-04-03T09:49:28;5.60;;;1.93;;
6751;SDS011;3413;47.680;9.166;2023-04-03T09:54:34;3.57;;;1.83;;
6751;SDS011;3413;47.680;9.166;2023-04-03T09:59:46;4.00;;;2.20;;
6751;SDS011;3413;47.680;9.166;2023-04-03T10:04:57;3.20;;;2.23;;
6751;SDS011;3413;47.680;9.166;2023-04-03T10:15:33;3.60;;;1.80;;
6751;SDS011;3413;47.680;9.166;2023-04-03T10:20:44;3.57;;;2.13;;
6751;SDS011;3413;47.680;9.166;2023-04-03T10:32:02;5.47;;;2.30;;
6751;SDS011;3413;47.680;9.166;2023-04-03T10:37:14;3.33;;;2.17;;
6751;SDS011;3413;47.680;9.166;2023-04-03T10:49:03;5.13;;;2.60;;
6751;SDS011;3413;47.680;9.166;2023-04-03T10:53:39;5.87;;;2.30;;
6751;SDS011;3413;47.680;9.166;2023-04-03T10:58:45;3.33;;;2.07;;
6751;SDS011;3413;47.680;9.166;2023-04-03T11:03:54;3.07;;;2.00;;
6751;SDS011;3413;47.680;9.166;2023-04-03T11:09:00;3.47;;;2.00;;
6751;SDS011;3413;47.680;9.166;2023-04-03T11:19:35;3.30;;;2.03;;
6751;SDS011;3413;47.680;9.166;2023-04-03T11:30:15;5.40;;;2.03;;
6751;SDS011;3413;47.680;9.166;2023-04-03T11:35:22;3.70;;;2.00;;
6751;SDS011;3413;47.680;9.166;2023-04-03T11:40:29;4.43;;;2.40;;
6751;SDS011;3413;47.680;9.166;2023-04-03T11:45:35;3.27;;;1.80;;
6751;SDS011;3413;47.680;9.166;2023-04-03T11:55:44;2.03;;;1.50;;
6751;SDS011;3413;47.680;9.166;2023-04-03T12:00:55;5.47;;;1.60;;
6751;SDS011;3413;47.680;9.166;2023-04-03T12:27:26;5.17;;;2.20;;
6751;SDS011;3413;47.680;9.166;2023-04-03T12:43:47;3.30;;;2.00;;
6751;SDS011;3413;47.680;9.166;2023-04-03T12:49:14;1.93;;;1.27;;
6751;SDS011;3413;47.680;9.166;2023-04-03T12:54:34;2.87;;;1.60;;
6751;SDS011;3413;47.680;9.166;2023-04-03T12:59:38;2.67;;;1.47;;
6751;SDS011;3413;47.680;9.166;2023-04-03T13:04:40;3.03;;;1.67;;
6751;SDS011;3413;47.680;9.166;2023-04-03T13:09:42;2.53;;;1.70;;
6751;SDS011;3413;47.680;9.166;2023-04-03T13:14:58;3.30;;;1.30;;
6751;SDS011;3413;47.680;9.166;2023-04-03T13:25:36;4.03;;;1.70;;
6751;SDS011;3413;47.680;9.166;2023-04-03T13:30:57;4.10;;;1.33;;
6751;SDS011;3413;47.680;9.166;2023-04-03T13:36:18;1.97;;;1.40;;
6751;SDS011;3413;47.680;9.166;2023-04-03T13:41:30;1.97;;;1.43;;
6751;SDS011;3413;47.680;9.166;2023-04-03T13:46:33;2.53;;;1.63;;
6751;SDS011;3413;47.680;9.166;2023-04-03T13:51:37;3.50;;;1.77;;
6751;SDS011;3413;47.680;9.166;2023-04-03T13:56:40;2.33;;;1.73;;
6751;SDS011;3413;47.680;9.166;2023-04-03T14:01:50;2.80;;;1.80;;
6751;SDS011;3413;47.680;9.166;2023-04-03T14:07:07;3.30;;;1.97;;
6751;SDS011;3413;47.680;9.166;2023-04-03T14:12:30;6.13;;;2.13;;
6751;SDS011;3413;47.680;9.166;2023-04-03T14:17:37;3.40;;;2.00;;
6751;SDS011;3413;47.680;9.166;2023-04-03T14:22:39;2.70;;;1.70;;
6751;SDS011;3413;47.680;9.166;2023-04-03T14:27:43;3.17;;;1.70;;
6751;SDS011;3413;47.680;9.166;2023-04-03T14:32:47;3.63;;;1.70;;
6751;SDS011;3413;47.680;9.166;2023-04-03T14:37:49;2.57;;;1.50;;
6751;SDS011;3413;47.680;9.166;2023-04-03T14:42:53;2.63;;;1.60;;
6751;SDS011;3413;47.680;9.166;2023-04-03T14:47:56;4.73;;;2.07;;
6751;SDS011;3413;47.680;9.166;2023-04-03T14:53:00;3.97;;;1.60;;
6751;SDS011;3413;47.680;9.166;2023-04-03T14:58:02;3.30;;;2.00;;
6751;SDS011;3413;47.680;9.166;2023-04-03T15:03:04;3.33;;;1.50;;
6751;SDS011;3413;47.680;9.166;2023-04-03T15:08:08;3.43;;;1.80;;
6751;SDS011;3413;47.680;9.166;2023-04-03T15:13:18;4.90;;;1.73;;
6751;SDS011;3413;47.680;9.166;2023-04-03T15:18:25;4.03;;;1.60;;
6751;SDS011;3413;47.680;9.166;2023-04-03T15:23:31;5.40;;;1.43;;
6751;SDS011;3413;47.680;9.166;2023-04-03T15:28:37;2.77;;;1.33;;
6751;SDS011;3413;47.680;9.166;2023-04-03T15:33:43;2.57;;;1.40;;
6751;SDS011;3413;47.680;9.166;2023-04-03T15:38:45;3.07;;;1.90;;
6751;SDS011;3413;47.680;9.166;2023-04-03T15:43:46;2.20;;;1.60;;
6751;SDS011;3413;47.680;9.166;2023-04-03T15:48:48;4.97;;;1.87;;
6751;SDS011;3413;47.680;9.166;2023-04-03T15:53:50;4.63;;;2.20;;
6751;SDS011;3413;47.680;9.166;2023-04-03T15:58:53;2.30;;;1.60;;
6751;SDS011;3413;47.680;9.166;2023-04-03T16:03:54;4.43;;;2.03;;
6751;SDS011;3413;47.680;9.166;2023-04-03T16:08:57;3.07;;;1.70;;
6751;SDS011;3413;47.680;9.166;2023-04-03T16:13:59;2.70;;;1.70;;
6751;SDS011;3413;47.680;9.166;2023-04-03T16:19:01;4.17;;;1.83;;
6751;SDS011;3413;47.680;9.166;2023-04-03T16:24:03;3.20;;;1.63;;
6751;SDS011;3413;47.680;9.166;2023-04-03T16:29:05;2.60;;;1.90;;
6751;SDS011;3413;47.680;9.166;2023-04-03T16:34:07;3.50;;;2.13;;
6751;SDS011;3413;47.680;9.166;2023-04-03T16:39:09;2.67;;;1.63;;
6751;SDS011;3413;47.680;9.166;2023-04-03T16:44:11;2.43;;;1.83;;
6751;SDS011;3413;47.680;9.166;2023-04-03T16:49:13;6.13;;;1.87;;
6751;SDS011;3413;47.680;9.166;2023-04-03T16:54:15;3.87;;;1.97;;
6751;SDS011;3413;47.680;9.166;2023-04-03T16:59:17;3.80;;;2.07;;
6751;SDS011;3413;47.680;9.166;2023-04-03T17:04:19;2.40;;;1.77;;
6751;SDS011;3413;47.680;9.166;2023-04-03T17:09:21;2.60;;;1.70;;
6751;SDS011;3413;47.680;9.166;2023-04-03T17:14:24;2.40;;;1.80;;
6751;SDS011;3413;47.680;9.166;2023-04-03T17:19:27;4.13;;;1.90;;
6751;SDS011;3413;47.680;9.166;2023-04-03T17:24:29;4.10;;;1.97;;
6751;SDS011;3413;47.680;9.166;2023-04-03T17:29:31;2.40;;;1.70;;
6751;SDS011;3413;47.680;9.166;2023-04-03T17:34:33;7.40;;;1.90;;
6751;SDS011;3413;47.680;9.166;2023-04-03T17:39:37;3.90;;;1.93;;
6751;SDS011;3413;47.680;9.166;2023-04-03T17:44:39;2.90;;;1.90;;
6751;SDS011;3413;47.680;9.166;2023-04-03T17:49:40;3.20;;;1.80;;
6751;SDS011;3413;47.680;9.166;2023-04-03T17:54:42;6.00;;;2.10;;
6751;SDS011;3413;47.680;9.166;2023-04-03T17:59:45;4.50;;;2.10;;
6751;SDS011;3413;47.680;9.166;2023-04-03T18:04:49;2.80;;;1.83;;
6751;SDS011;3413;47.680;9.166;2023-04-03T18:09:52;3.00;;;1.83;;
6751;SDS011;3413;47.680;9.166;2023-04-03T18:14:56;2.73;;;1.80;;
6751;SDS011;3413;47.680;9.166;2023-04-03T18:20:00;5.43;;;1.63;;
6751;SDS011;3413;47.680;9.166;2023-04-03T18:25:02;5.53;;;1.67;;
6751;SDS011;3413;47.680;9.166;2023-04-03T18:30:06;2.67;;;1.70;;
6751;SDS011;3413;47.680;9.166;2023-04-03T18:35:14;3.27;;;2.07;;
6751;SDS011;3413;47.680;9.166;2023-04-03T18:40:16;3.00;;;1.40;;
6751;SDS011;3413;47.680;9.166;2023-04-03T18:45:19;2.40;;;1.70;;
6751;SDS011;3413;47.680;9.166;2023-04-03T18:50:23;3.00;;;1.90;;
6751;SDS011;3413;47.680;9.166;2023-04-03T18:55:26;4.30;;;1.63;;
6751;SDS011;3413;47.680;9.166;2023-04-03T19:00:28;7.33;;;1.80;;
6751;SDS011;3413;47.680;9.166;2023-04-03T19:05:30;3.10;;;1.80;;
6751;SDS011;3413;47.680;9.166;2023-04-03T19:10:33;3.70;;;1.50;;
6751;SDS011;3413;47.680;9.166;2023-04-03T19:15:35;3.67;;;1.57;;
6751;SDS011;3413;47.680;9.166;2023-04-03T19:20:37;2.40;;;1.57;;
6751;SDS011;3413;47.680;9.166;2023-04-03T19:25:39;2.20;;;1.50;;
6751;SDS011;3413;47.680;9.166;2023-04-03T19:30:42;3.77;;;1.70;;
6751;SDS011;3413;47.680;9.166;2023-04-03T19:35:47;5.20;;;2.33;;
6751;SDS011;3413;47.680;9.166;2023-04-03T19:40:49;2.40;;;1.50;;
6751;SDS011;3413;47.680;9.166;2023-04-03T19:45:51;1.40;;;1.20;;
6751;SDS011;3413;47.680;9.166;2023-04-03T19:50:53;2.00;;;1.47;;
6751;SDS011;3413;47.680;9.166;2023-04-03T19:55:56;8.13;;;1.97;;
6751;SDS011;3413;47.680;9.166;2023-04-03T20:00:58;2.53;;;1.57;;
6751;SDS011;3413;47.680;9.166;2023-04-03T20:06:01;4.97;;;1.80;;
6751;SDS011;3413;47.680;9.166;2023-04-03T20:11:05;4.83;;;1.20;;
6751;SDS011;3413;47.680;9.166;2023-04-03T20:16:07;5.23;;;1.23;;
6751;SDS011;3413;47.680;9.166;2023-04-03T20:21:10;2.33;;;1.27;;
6751;SDS011;3413;47.680;9.166;2023-04-03T20:26:17;2.90;;;1.40;;
6751;SDS011;3413;47.680;9.166;2023-04-03T20:31:27;2.37;;;1.30;;
6751;SDS011;3413;47.680;9.166;2023-04-03T20:36:30;2.43;;;1.40;;
6751;SDS011;3413;47.680;9.166;2023-04-03T20:41:33;1.37;;;1.07;;
6751;SDS011;3413;47.680;9.166;2023-04-03T20:46:41;2.60;;;1.20;;
6751;SDS011;3413;47.680;9.166;2023-04-03T20:51:52;2.00;;;1.10;;
6751;SDS011;3413;47.680;9.166;2023-04-03T20:56:54;3.93;;;1.40;;
6751;SDS011;3413;47.680;9.166;2023-04-03T21:01:56;2.70;;;1.30;;
6751;SDS011;3413;47.680;9.166;2023-04-03T21:23:48;2.47;;;1.00;;
6751;SDS011;3413;47.680;9.166;2023-04-03T21:28:52;3.33;;;1.47;;
6751;SDS011;3413;47.680;9.166;2023-04-03T21:33:54;6.73;;;1.57;;
6751;SDS011;3413;47.680;9.166;2023-04-03T21:38:56;2.73;;;1.30;;
6751;SDS011;3413;47.680;9.166;2023-04-03T21:43:59;4.93;;;1.60;;
6751;SDS011;3413;47.680;9.166;2023-04-03T21:49:01;2.27;;;1.17;;
6751;SDS011;3413;47.680;9.166;2023-04-03T21:54:03;3.43;;;1.20;;
6751;SDS011;3413;47.680;9.166;2023-04-03T21:59:05;6.00;;;1.40;;
6751;SDS011;3413;47.680;9.166;2023-04-03T22:04:07;2.77;;;1.17;;
6751;SDS011;3413;47.680;9.166;2023-04-03T22:09:09;1.67;;;1.30;;
6751;SDS011;3413;47.680;9.166;2023-04-03T22:14:11;2.20;;;1.30;;
6751;SDS011;3413;47.680;9.166;2023-04-03T22:19:13;2.50;;;1.33;;
6751;SDS011;3413;47.680;9.166;2023-04-03T22:24:15;3.20;;;1.30;;
6751;SDS011;3413;47.680;9.166;2023-04-03T22:29:20;8.27;;;1.57;;
6751;SDS011;3413;47.680;9.166;2023-04-03T22:34:22;4.00;;;1.50;;
6751;SDS011;3413;47.680;9.166;2023-04-03T22:39:24;4.00;;;1.97;;
6751;SDS011;3413;47.680;9.166;2023-04-03T22:44:26;2.83;;;1.50;;
6751;SDS011;3413;47.680;9.166;2023-04-03T22:49:36;3.83;;;1.70;;
6751;SDS011;3413;47.680;9.166;2023-04-03T22:54:39;2.83;;;1.33;;
6751;SDS011;3413;47.680;9.166;2023-04-03T22:59:41;4.40;;;1.90;;
6751;SDS011;3413;47.680;9.166;2023-04-03T23:04:43;2.80;;;1.60;;
6751;SDS011;3413;47.680;9.166;2023-04-03T23:09:45;3.13;;;1.53;;
6751;SDS011;3413;47.680;9.166;2023-04-03T23:14:47;2.90;;;1.70;;
6751;SDS011;3413;47.680;9.166;2023-04-03T23:19:50;3.27;;;1.53;;
6751;SDS011;3413;47.680;9.166;2023-04-03T23:24:52;2.20;;;1.30;;
6751;SDS011;3413;47.680;9.166;2023-04-03T23:29:54;2.63;;;1.43;;
6751;SDS011;3413;47.680;9.166;2023-04-03T23:34:57;2.50;;;1.40;;
6751;SDS011;3413;47.680;9.166;2023-04-03T23:39:59;3.70;;;1.57;;
6751;SDS011;3413;47.680;9.166;2023-04-03T23:45:02;5.73;;;1.93;;
6751;SDS011;3413;47.680;9.166;2023-04-03T23:50:05;3.40;;;1.70;;
6751;SDS011;3413;47.680;9.166;2023-04-03T23:55:07;3.13;;;1.90;;
